Kimberly Turecamo — WDC6838 — position and weather

sailwx.info

Track history (hours):
 
Tides and Currents Weather Stations Pressure Air Temp Water Temp Dewpoint Dewpoint Depression Visibility Wind Speed Wind Dir Waves Ship Positions

Kimberly Turecamo

Owner: Moran Towing Corporation, New Canaan, CT. More information available from US FCC via Universal Licensing System and Coast Guard Vessel Documentation Center.

Last reported at 2018-May-24 20:51 UTC. Time now 2018-May-24 21:13 UTC.
Position N 40°38' W 074°08'.

Length 31 m; draft 5 m.

Type: Tug. MMSI: 367061980.

Date/timePositionNaut miles runAvg speedWind from/ knotsBaromVisibWave heightAir tempDewpointWater temp
2018-May-24 20:51N 40°38' W 074°08'0 0.0
2018-May-24 20:27N 40°38' W 074°08'0 0.0
2018-May-24 20:00N 40°38' W 074°08'0 0.0
2018-May-24 19:09N 40°38' W 074°08'0 0.0
2018-May-24 18:51N 40°38' W 074°08'0 0.0
2018-May-24 18:27N 40°38' W 074°08'0 0.0
2018-May-24 17:33N 40°38' W 074°08'0 0.0
2018-May-24 17:27N 40°38' W 074°08'0 0.0
2018-May-24 16:57N 40°38' W 074°08'0 0.0
2018-May-24 16:27N 40°38' W 074°08'1 2.7
2018-May-24 15:58N 40°39' W 074°06'1 2.1
2018-May-24 15:30N 40°39' W 074°05'1 1.1
2018-May-24 15:00N 40°39' W 074°06'5 0.4
2018-May-24 02:57N 40°38' W 074°12'3 6.8
2018-May-24 02:30N 40°39' W 074°08'2 4.4
2018-May-24 02:00N 40°39' W 074°06'2 3.4
2018-May-24 01:30N 40°38' W 074°04'0 0.7
2018-May-24 00:59N 40°38' W 074°04'2 3.8
2018-May-24 00:30N 40°39' W 074°06'2 3.6
2018-May-24 00:00N 40°38' W 074°08'0 0.0
2018-May-23 23:30N 40°38' W 074°08'0 0.0
2018-May-23 23:00N 40°38' W 074°08'0 0.0
2018-May-23 22:30N 40°38' W 074°08'1 2.6
2018-May-23 22:00N 40°39' W 074°06'2 4.3
2018-May-23 21:30N 40°39' W 074°09'2 4.7
2018-May-23 21:00N 40°42' W 074°08'3 5.7
2018-May-23 20:29N 40°39' W 074°09'3 6.3
2018-May-23 20:00N 40°39' W 074°05'0 0.5
2018-May-23 19:30N 40°39' W 074°05'2 3.7
2018-May-23 19:00N 40°39' W 074°07'0 0.7
2018-May-23 18:30N 40°38' W 074°08'0 0.0
2018-May-23 18:00N 40°38' W 074°08'0 0.0
2018-May-23 17:30N 40°38' W 074°08'0 0.0
2018-May-23 17:00N 40°38' W 074°08'3 6.1
2018-May-23 16:31N 40°39' W 074°04'1 2.5
2018-May-23 16:00N 40°39' W 074°06'2 3.4
2018-May-23 15:30N 40°38' W 074°08'0 0.0
2018-May-23 13:38N 40°38' W 074°08'0 0.0
2018-May-23 13:11N 40°38' W 074°08'0 0.0
2018-May-23 13:00N 40°38' W 074°08'0 0.0
2018-May-23 12:03N 40°38' W 074°08'0 0.0
2018-May-23 12:00N 40°38' W 074°08'0 0.0
2018-May-23 11:19N 40°38' W 074°08'2 7.6
2018-May-23 11:00N 40°39' W 074°05'2 3.6
2018-May-23 10:30N 40°41' W 074°04'0 0.1
2018-May-23 10:01N 40°41' W 074°04'1 1.8
2018-May-23 09:30N 40°40' W 074°03'2 3.6
2018-May-23 09:00N 40°38' W 074°03'0 0.8
2018-May-23 08:30N 40°38' W 074°04'1 2.7
2018-May-23 08:00N 40°39' W 074°05'2 2.2
2018-May-23 07:05N 40°38' W 074°08'0 5.6
2018-May-23 07:01N 40°39' W 074°08'1 2.9
2018-May-23 06:30N 40°40' W 074°09'0 0.1
2018-May-23 06:00N 40°40' W 074°08'2 2.7
2018-May-23 05:26N 40°39' W 074°09'1 1.9
2018-May-23 05:00N 40°38' W 074°08'0 0.0
2018-May-23 04:30N 40°38' W 074°08'0 0.0
2018-May-23 03:59N 40°38' W 074°08'0 0.0
2018-May-23 03:30N 40°38' W 074°08'0 0.0
2018-May-23 03:00N 40°38' W 074°08'0 0.0
2018-May-23 02:30N 40°38' W 074°08'0 0.0
2018-May-23 02:00N 40°38' W 074°08'0 0.0
2018-May-23 01:30N 40°38' W 074°08'0 0.0
2018-May-23 01:00N 40°38' W 074°08'0 0.0
2018-May-23 00:30N 40°38' W 074°08'0 0.0
2018-May-23 00:00N 40°38' W 074°08'0 0.0
2018-May-22 23:30N 40°38' W 074°08'0 0.0
2018-May-22 23:00N 40°38' W 074°08'0 0.0
2018-May-22 22:30N 40°38' W 074°08'0 0.0
2018-May-22 22:00N 40°38' W 074°08'0 0.0
2018-May-22 21:30N 40°38' W 074°08'0 0.0
2018-May-22 21:00N 40°38' W 074°08'0 0.8
2018-May-22 20:30N 40°39' W 074°07'0 0.4
2018-May-22 19:51N 40°39' W 074°07'1 2.0
2018-May-22 19:30N 40°38' W 074°08'0 0.0
2018-May-22 19:00N 40°38' W 074°08'0 0.0
2018-May-22 18:30N 40°38' W 074°08'0 0.0
2018-May-22 18:00N 40°38' W 074°08'0 0.0
2018-May-22 17:30N 40°38' W 074°08'0 0.0
2018-May-22 17:00N 40°38' W 074°08'0 0.0
2018-May-22 16:30N 40°38' W 074°08'0 0.0
2018-May-22 16:00N 40°38' W 074°08'0 0.0
2018-May-22 15:30N 40°38' W 074°08'1 1.5
2018-May-22 15:00N 40°39' W 074°09'3 5.7
2018-May-22 14:30N 40°41' W 074°08'0 0.6
2018-May-22 13:57N 40°41' W 074°08'0 0.4
2018-May-22 13:30N 40°41' W 074°08'0 0.0
2018-May-22 13:00N 40°41' W 074°08'0 1.0
2018-May-22 12:30N 40°41' W 074°09'2 4.9
2018-May-22 12:00N 40°39' W 074°07'2 3.5
2018-May-22 11:30N 40°40' W 074°08'1 1.7
2018-May-22 11:00N 40°41' W 074°09'0 0.1
2018-May-22 10:30N 40°41' W 074°09'0 0.6
2018-May-22 09:57N 40°41' W 074°08'0 0.3
2018-May-22 09:30N 40°41' W 074°09'1 2.3
2018-May-22 09:00N 40°40' W 074°09'2 4.2
2018-May-22 08:29N 40°39' W 074°06'3 5.2
2018-May-22 08:00N 40°40' W 074°03'1 2.3
2018-May-22 07:30N 40°41' W 074°04'0 0.8
2018-May-22 07:00N 40°41' W 074°04'4 6.7
2018-May-22 06:28N 40°38' W 074°08'0 0.0
2018-May-22 06:00N 40°38' W 074°08'0 0.0
2018-May-22 05:30N 40°38' W 074°08'0 0.0
2018-May-22 05:00N 40°38' W 074°08'0 0.0
2018-May-22 04:28N 40°38' W 074°08'0 0.0
2018-May-22 03:59N 40°38' W 074°08'0 0.0
2018-May-22 03:30N 40°38' W 074°08'0 0.0
2018-May-22 03:00N 40°38' W 074°08'0 0.0
2018-May-22 02:30N 40°38' W 074°08'0 0.0
2018-May-22 02:00N 40°38' W 074°08'0 0.0
2018-May-22 01:30N 40°38' W 074°08'0 0.0
2018-May-22 01:00N 40°38' W 074°08'0 0.0
2018-May-22 00:30N 40°38' W 074°08'0 0.0
2018-May-22 00:00N 40°38' W 074°08'0 0.0
2018-May-21 23:30N 40°38' W 074°08'0 0.0
2018-May-21 23:00N 40°38' W 074°08'0 0.0
2018-May-21 22:26N 40°38' W 074°08'0 0.0
2018-May-21 21:58N 40°38' W 074°08'0 0.0
2018-May-21 21:13N 40°38' W 074°08'0 0.0
2018-May-21 21:00N 40°38' W 074°08'3 0.4
2018-May-21 13:04N 40°38' W 074°12'1 9.9
2018-May-21 12:58N 40°39' W 074°11'4 9.0
2018-May-21 12:30N 40°39' W 074°06'0 0.9
2018-May-21 11:55N 40°39' W 074°05'0 0.0
2018-May-21 11:18N 40°39' W 074°05'2 6.7
2018-May-21 11:00N 40°39' W 074°08'0 0.0
2018-May-21 01:12N 40°38' W 074°08'1 5.7
2018-May-21 01:00N 40°39' W 074°09'3 5.0
2018-May-21 00:30N 40°42' W 074°09'0 0.0
2018-May-21 00:00N 40°42' W 074°09'0 0.0
2018-May-20 23:30N 40°42' W 074°09'1 1.6
2018-May-20 22:35N 40°41' W 074°08'1 6.1
2018-May-20 22:30N 40°40' W 074°08'2 3.3
2018-May-20 22:00N 40°39' W 074°08'0 0.1
2018-May-20 21:28N 40°38' W 074°08'0 0.0
2018-May-20 20:57N 40°38' W 074°08'0 0.0
2018-May-20 20:27N 40°38' W 074°08'0 0.0
2018-May-20 19:59N 40°38' W 074°08'0 0.0
2018-May-20 19:30N 40°38' W 074°08'0 0.0
2018-May-20 18:55N 40°38' W 074°08'4 1.8
2018-May-20 16:45N 40°36' W 074°12'2 4.9
2018-May-20 16:23N 40°38' W 074°12'2 4.8
2018-May-20 15:52N 40°39' W 074°09'2 6.8
2018-May-20 15:30N 40°39' W 074°06'2 4.8
2018-May-20 15:00N 40°38' W 074°03'3 5.3
2018-May-20 14:29N 40°39' W 074°06'1 2.4
2018-May-20 13:59N 40°38' W 074°08'0 0.0
2018-May-20 13:30N 40°38' W 074°08'1 1.2
2018-May-20 12:56N 40°38' W 074°09'2 0.7
2018-May-20 09:08N 40°38' W 074°12'3 0.4
2018-May-20 02:05N 40°38' W 074°08'0 0.0
2018-May-20 01:34N 40°38' W 074°08'0 0.0
2018-May-20 01:28N 40°38' W 074°08'0 0.0
2018-May-20 00:55N 40°38' W 074°08'3 6.0
2018-May-20 00:30N 40°41' W 074°08'0 0.0
2018-May-20 00:00N 40°41' W 074°08'3 5.1
2018-May-19 23:30N 40°38' W 074°08'0 0.0
2018-May-19 22:59N 40°38' W 074°08'0 0.0
2018-May-19 22:30N 40°38' W 074°08'0 0.0
2018-May-19 22:00N 40°38' W 074°08'0 0.0
2018-May-19 21:30N 40°38' W 074°08'0 0.0
2018-May-19 21:00N 40°38' W 074°08'0 0.0
2018-May-19 20:31N 40°38' W 074°08'0 0.0
2018-May-19 20:01N 40°38' W 074°08'0 0.0
2018-May-19 19:30N 40°38' W 074°08'3 6.5
2018-May-19 19:00N 40°40' W 074°04'1 1.9
2018-May-19 18:30N 40°40' W 074°05'3 5.0
2018-May-19 17:58N 40°39' W 074°08'0 0.2
2018-May-19 17:30N 40°38' W 074°08'0 0.0
2018-May-19 17:00N 40°38' W 074°08'0 0.0
2018-May-19 16:30N 40°38' W 074°08'0 0.0
2018-May-19 16:00N 40°38' W 074°08'0 0.0
2018-May-19 15:30N 40°38' W 074°08'0 0.0
2018-May-19 15:00N 40°38' W 074°08'0 0.0
2018-May-19 14:30N 40°38' W 074°08'0 0.0
2018-May-19 13:51N 40°38' W 074°08'0 0.0
2018-May-19 13:30N 40°38' W 074°08'0 0.0
2018-May-19 13:00N 40°38' W 074°08'0 0.0
2018-May-19 12:30N 40°38' W 074°08'0 0.0
2018-May-19 12:00N 40°38' W 074°08'0 0.0
2018-May-19 11:30N 40°38' W 074°08'0 0.0
2018-May-19 11:00N 40°38' W 074°08'0 0.0
2018-May-19 10:30N 40°38' W 074°08'0 0.0
2018-May-19 10:00N 40°38' W 074°08'0 0.0
2018-May-19 09:30N 40°38' W 074°08'0 0.0
2018-May-19 09:00N 40°38' W 074°08'0 0.0
2018-May-19 08:30N 40°38' W 074°08'0 0.0
2018-May-19 08:00N 40°38' W 074°08'0 0.0
2018-May-19 07:29N 40°38' W 074°08'0 0.0
2018-May-19 07:00N 40°38' W 074°08'0 0.0
2018-May-19 06:30N 40°38' W 074°08'0 0.0
2018-May-19 06:00N 40°38' W 074°08'0 0.0
2018-May-19 05:30N 40°38' W 074°08'0 0.0
2018-May-19 05:00N 40°38' W 074°08'0 0.0
2018-May-19 04:30N 40°38' W 074°08'0 0.0
2018-May-19 04:00N 40°38' W 074°08'0 0.1
2018-May-19 03:30N 40°38' W 074°08'2 3.9
2018-May-19 03:01N 40°39' W 074°05'0 0.0
2018-May-19 02:30N 40°39' W 074°05'2 3.6
2018-May-19 01:58N 40°38' W 074°08'0 0.0
2018-May-19 01:30N 40°38' W 074°08'0 0.0
2018-May-19 01:00N 40°38' W 074°08'0 0.0
2018-May-19 00:30N 40°38' W 074°08'1 0.9
2018-May-18 23:55N 40°39' W 074°08'2 4.8
2018-May-18 23:30N 40°40' W 074°08'1 2.2
2018-May-18 22:58N 40°42' W 074°08'2 4.0
2018-May-18 22:29N 40°40' W 074°09'3 5.3
2018-May-18 22:00N 40°39' W 074°05'0 0.0
2018-May-18 21:30N 40°39' W 074°05'0 0.4
2018-May-18 21:00N 40°39' W 074°05'5 2.2
2018-May-18 18:31N 40°38' W 074°12'010.8
2018-May-18 18:30N 40°38' W 074°12'3 1.9
2018-May-18 16:45N 40°38' W 074°08'1 6.1
2018-May-18 16:30N 40°39' W 074°06'5 9.7
2018-May-18 16:00N 40°42' W 074°00'4 8.2
2018-May-18 15:30N 40°45' W 073°58'1 0.5
2018-May-18 13:46N 40°46' W 073°57'3 9.7
2018-May-18 13:30N 40°43' W 073°58'611.5
2018-May-18 13:00N 40°40' W 074°04'3 5.4
2018-May-18 12:27N 40°38' W 074°08'0 0.1
2018-May-18 12:00N 40°38' W 074°08'2 5.0
2018-May-18 11:30N 40°41' W 074°08'1 1.5
2018-May-18 11:00N 40°42' W 074°08'1 1.4
2018-May-18 10:30N 40°41' W 074°08'3 5.0
2018-May-18 10:00N 40°39' W 074°09'1 1.6
2018-May-18 09:21N 40°38' W 074°08'0 0.0
2018-May-18 08:49N 40°38' W 074°08'0 0.0
2018-May-18 08:28N 40°38' W 074°08'0 0.0
2018-May-18 08:00N 40°38' W 074°08'0 0.0
2018-May-18 07:30N 40°38' W 074°08'0 0.0
2018-May-18 07:00N 40°38' W 074°08'0 0.0
2018-May-18 06:30N 40°38' W 074°08'0 0.0
2018-May-18 06:00N 40°38' W 074°08'0 0.0
2018-May-18 05:30N 40°38' W 074°08'0 0.1
2018-May-18 05:00N 40°38' W 074°08'6 7.8
2018-May-18 04:12N 40°34' W 074°13'1 2.4
2018-May-18 03:44N 40°33' W 074°14'5 3.3
2018-May-18 02:17N 40°38' W 074°12'3 8.8
2018-May-18 02:00N 40°39' W 074°09'1 1.5
2018-May-18 01:29N 40°38' W 074°08'0 0.0
2018-May-18 00:56N 40°38' W 074°08'0 0.0
2018-May-18 00:21N 40°38' W 074°08'0 0.0
2018-May-17 23:53N 40°38' W 074°08'0 0.0
2018-May-17 23:27N 40°38' W 074°08'0 0.0
2018-May-17 22:54N 40°38' W 074°08'0 0.0
2018-May-17 22:30N 40°38' W 074°08'0 0.0
2018-May-17 22:00N 40°38' W 074°08'0 0.0
2018-May-17 21:30N 40°38' W 074°08'0 0.0
2018-May-17 20:59N 40°38' W 074°08'0 0.0
2018-May-17 20:30N 40°38' W 074°08'1 1.6
2018-May-17 20:00N 40°39' W 074°07'5 9.3
2018-May-17 19:30N 40°41' W 074°01'1 1.2
2018-May-17 19:00N 40°41' W 074°01'0 0.1
2018-May-17 18:30N 40°41' W 074°01'4 7.5
2018-May-17 18:00N 40°39' W 074°05'2 1.7
2018-May-17 16:38N 40°38' W 074°08'0 0.0
2018-May-17 16:24N 40°38' W 074°08'0 0.0
2018-May-17 16:00N 40°38' W 074°08'0 0.0
2018-May-17 15:19N 40°38' W 074°08'0 0.0
2018-May-17 14:59N 40°38' W 074°08'0 0.0
2018-May-17 14:15N 40°38' W 074°08'0 0.0
2018-May-17 13:59N 40°38' W 074°08'1 2.7
2018-May-17 13:30N 40°40' W 074°09'1 2.2
2018-May-17 13:00N 40°41' W 074°09'0 0.2
2018-May-17 12:30N 40°41' W 074°09'0 0.7
2018-May-17 12:00N 40°41' W 074°09'0 0.3
2018-May-17 11:30N 40°41' W 074°09'1 1.6
2018-May-17 11:00N 40°41' W 074°08'1 1.9
2018-May-17 10:30N 40°42' W 074°09'1 2.7
2018-May-17 10:01N 40°41' W 074°08'2 4.5
2018-May-17 09:30N 40°39' W 074°09'2 3.3
2018-May-17 09:00N 40°39' W 074°07'3 6.0
2018-May-17 08:30N 40°38' W 074°03'4 7.2
2018-May-17 08:00N 40°39' W 074°08'0 0.1
2018-May-17 07:27N 40°38' W 074°08'0 0.0
2018-May-17 06:58N 40°38' W 074°08'0 0.0
2018-May-17 05:23N 40°38' W 074°08'0 0.0
2018-May-17 05:00N 40°38' W 074°08'0 0.0
2018-May-17 04:23N 40°38' W 074°08'0 0.0
2018-May-17 04:00N 40°38' W 074°08'0 0.0
2018-May-17 03:28N 40°38' W 074°08'0 0.0
2018-May-17 03:00N 40°38' W 074°08'4 0.5
2018-May-16 20:15N 40°37' W 074°12'2 8.3
2018-May-16 19:59N 40°39' W 074°10'2 4.0
2018-May-16 19:30N 40°38' W 074°08'0 0.0
2018-May-16 19:00N 40°38' W 074°08'0 0.0
2018-May-16 18:30N 40°38' W 074°08'0 0.0
2018-May-16 17:58N 40°38' W 074°08'0 0.0
2018-May-16 17:30N 40°38' W 074°08'0 0.0
2018-May-16 16:58N 40°38' W 074°08'0 0.0
2018-May-16 16:29N 40°38' W 074°08'0 0.0
2018-May-16 15:59N 40°38' W 074°08'0 0.0
2018-May-16 15:30N 40°38' W 074°08'0 0.0
2018-May-16 15:00N 40°38' W 074°08'0 0.0
2018-May-16 14:30N 40°38' W 074°08'0 0.0
2018-May-16 13:58N 40°38' W 074°08'0 0.0
2018-May-16 13:27N 40°38' W 074°08'0 0.0
2018-May-16 11:57N 40°38' W 074°08'1 2.6
2018-May-16 11:30N 40°39' W 074°09'1 1.3
2018-May-16 11:00N 40°40' W 074°09'2 3.2
2018-May-16 10:29N 40°38' W 074°08'0 0.1
2018-May-16 10:00N 40°38' W 074°08'0 0.0
2018-May-16 09:30N 40°38' W 074°08'0 0.0
2018-May-16 09:00N 40°38' W 074°08'0 0.0
2018-May-16 08:30N 40°38' W 074°08'0 0.0
2018-May-16 08:00N 40°38' W 074°08'0 0.0
2018-May-16 07:28N 40°38' W 074°08'0 0.0
2018-May-16 07:00N 40°38' W 074°08'0 0.0
2018-May-16 06:30N 40°38' W 074°08'0 0.0
2018-May-16 05:59N 40°38' W 074°08'0 0.0
2018-May-16 05:30N 40°38' W 074°08'0 0.0
2018-May-16 05:00N 40°38' W 074°08'0 0.0
2018-May-16 04:30N 40°38' W 074°08'0 0.5
2018-May-16 04:00N 40°39' W 074°07'5 9.2
2018-May-16 03:30N 40°41' W 074°02'1 2.5
2018-May-16 03:00N 40°41' W 074°01'0 0.1
2018-May-16 02:30N 40°41' W 074°01'2 3.3
2018-May-16 02:00N 40°40' W 074°02'5 9.3
2018-May-16 01:30N 40°45' W 074°01'2 0.5
2018-May-15 22:13N 40°46' W 074°00'2 8.1
2018-May-15 22:00N 40°45' W 074°01'4 8.2
2018-May-15 21:30N 40°41' W 074°02'1 2.1
2018-May-15 21:00N 40°40' W 074°02'0 1.0
2018-May-15 20:30N 40°39' W 074°03'4 8.2
2018-May-15 20:00N 40°38' W 074°08'0 0.0
2018-May-15 19:30N 40°38' W 074°08'4 0.9
2018-May-15 15:08N 40°36' W 074°12'1 4.2
2018-May-15 14:56N 40°37' W 074°12'2 5.0
2018-May-15 14:30N 40°39' W 074°11'3 6.3
2018-May-15 14:00N 40°39' W 074°07'2 4.6
2018-May-15 13:30N 40°39' W 074°04'0 0.8
2018-May-15 13:00N 40°39' W 074°04'1 1.1
2018-May-15 12:30N 40°39' W 074°04'3 5.3
2018-May-15 11:58N 40°38' W 074°08'0 0.0
2018-May-15 11:30N 40°38' W 074°08'0 0.0
2018-May-15 10:59N 40°38' W 074°08'0 0.0
2018-May-15 10:30N 40°38' W 074°08'0 0.0
2018-May-15 10:00N 40°38' W 074°08'0 0.0
2018-May-15 09:30N 40°38' W 074°08'0 0.0
2018-May-15 08:59N 40°38' W 074°08'0 0.0
2018-May-15 08:30N 40°38' W 074°08'0 0.0
2018-May-15 08:00N 40°38' W 074°08'0 0.0
2018-May-15 07:30N 40°38' W 074°08'0 0.0
2018-May-15 06:57N 40°38' W 074°08'0 0.0
2018-May-15 06:30N 40°38' W 074°08'0 0.0
2018-May-15 05:59N 40°38' W 074°08'0 0.9
2018-May-15 05:30N 40°39' W 074°08'3 4.6
2018-May-15 04:54N 40°41' W 074°08'0 0.2
2018-May-15 04:18N 40°41' W 074°08'0 0.2
2018-May-15 03:59N 40°41' W 074°08'3 4.7
2018-May-15 03:24N 40°39' W 074°09'1 1.9
2018-May-15 03:00N 40°38' W 074°08'0 0.0
2018-May-15 02:30N 40°38' W 074°08'0 0.0
2018-May-15 02:00N 40°38' W 074°08'0 0.0
2018-May-15 01:30N 40°38' W 074°08'0 0.0
2018-May-15 00:59N 40°38' W 074°08'0 0.0
2018-May-15 00:30N 40°38' W 074°08'0 0.8
2018-May-15 00:00N 40°39' W 074°08'2 3.9
2018-May-14 23:30N 40°40' W 074°08'1 1.7
2018-May-14 23:00N 40°41' W 074°09'0 0.2
2018-May-14 22:30N 40°41' W 074°09'3 5.2
2018-May-14 22:00N 40°38' W 074°08'0 0.0
2018-May-14 21:30N 40°38' W 074°08'0 0.0
2018-May-14 21:00N 40°38' W 074°08'  
Track history (hours):
 
Tides and Currents Weather Stations Pressure Air Temp Water Temp Dewpoint Dewpoint Depression Visibility Wind Speed Wind Dir Waves Ship Positions

Kimberly Turecamo

Owner: Moran Towing Corporation, New Canaan, CT. More information available from US FCC via Universal Licensing System and Coast Guard Vessel Documentation Center.

Last reported at 2018-May-24 20:51 UTC. Time now 2018-May-24 21:13 UTC.
Position N 40°38' W 074°08'.

Length 31 m; draft 5 m.

Type: Tug. MMSI: 367061980.

Date/timePositionNaut miles runAvg speedWind from/ knotsBaromVisibWave heightAir tempDewpointWater temp
2018-May-24 20:51N 40°38' W 074°08'0 0.0
2018-May-24 20:27N 40°38' W 074°08'0 0.0
2018-May-24 20:00N 40°38' W 074°08'0 0.0
2018-May-24 19:09N 40°38' W 074°08'0 0.0
2018-May-24 18:51N 40°38' W 074°08'0 0.0
2018-May-24 18:27N 40°38' W 074°08'0 0.0
2018-May-24 17:33N 40°38' W 074°08'0 0.0
2018-May-24 17:27N 40°38' W 074°08'0 0.0
2018-May-24 16:57N 40°38' W 074°08'0 0.0
2018-May-24 16:27N 40°38' W 074°08'1 2.7
2018-May-24 15:58N 40°39' W 074°06'1 2.1
2018-May-24 15:30N 40°39' W 074°05'1 1.1
2018-May-24 15:00N 40°39' W 074°06'5 0.4
2018-May-24 02:57N 40°38' W 074°12'3 6.8
2018-May-24 02:30N 40°39' W 074°08'2 4.4
2018-May-24 02:00N 40°39' W 074°06'2 3.4
2018-May-24 01:30N 40°38' W 074°04'0 0.7
2018-May-24 00:59N 40°38' W 074°04'2 3.8
2018-May-24 00:30N 40°39' W 074°06'2 3.6
2018-May-24 00:00N 40°38' W 074°08'0 0.0
2018-May-23 23:30N 40°38' W 074°08'0 0.0
2018-May-23 23:00N 40°38' W 074°08'0 0.0
2018-May-23 22:30N 40°38' W 074°08'1 2.6
2018-May-23 22:00N 40°39' W 074°06'2 4.3
2018-May-23 21:30N 40°39' W 074°09'2 4.7
2018-May-23 21:00N 40°42' W 074°08'3 5.7
2018-May-23 20:29N 40°39' W 074°09'3 6.3
2018-May-23 20:00N 40°39' W 074°05'0 0.5
2018-May-23 19:30N 40°39' W 074°05'2 3.7
2018-May-23 19:00N 40°39' W 074°07'0 0.7
2018-May-23 18:30N 40°38' W 074°08'0 0.0
2018-May-23 18:00N 40°38' W 074°08'0 0.0
2018-May-23 17:30N 40°38' W 074°08'0 0.0
2018-May-23 17:00N 40°38' W 074°08'3 6.1
2018-May-23 16:31N 40°39' W 074°04'1 2.5
2018-May-23 16:00N 40°39' W 074°06'2 3.4
2018-May-23 15:30N 40°38' W 074°08'0 0.0
2018-May-23 13:38N 40°38' W 074°08'0 0.0
2018-May-23 13:11N 40°38' W 074°08'0 0.0
2018-May-23 13:00N 40°38' W 074°08'0 0.0
2018-May-23 12:03N 40°38' W 074°08'0 0.0
2018-May-23 12:00N 40°38' W 074°08'0 0.0
2018-May-23 11:19N 40°38' W 074°08'2 7.6
2018-May-23 11:00N 40°39' W 074°05'2 3.6
2018-May-23 10:30N 40°41' W 074°04'0 0.1
2018-May-23 10:01N 40°41' W 074°04'1 1.8
2018-May-23 09:30N 40°40' W 074°03'2 3.6
2018-May-23 09:00N 40°38' W 074°03'0 0.8
2018-May-23 08:30N 40°38' W 074°04'1 2.7
2018-May-23 08:00N 40°39' W 074°05'2 2.2
2018-May-23 07:05N 40°38' W 074°08'0 5.6
2018-May-23 07:01N 40°39' W 074°08'1 2.9
2018-May-23 06:30N 40°40' W 074°09'0 0.1
2018-May-23 06:00N 40°40' W 074°08'2 2.7
2018-May-23 05:26N 40°39' W 074°09'1 1.9
2018-May-23 05:00N 40°38' W 074°08'0 0.0
2018-May-23 04:30N 40°38' W 074°08'0 0.0
2018-May-23 03:59N 40°38' W 074°08'0 0.0
2018-May-23 03:30N 40°38' W 074°08'0 0.0
2018-May-23 03:00N 40°38' W 074°08'0 0.0
2018-May-23 02:30N 40°38' W 074°08'0 0.0
2018-May-23 02:00N 40°38' W 074°08'0 0.0
2018-May-23 01:30N 40°38' W 074°08'0 0.0
2018-May-23 01:00N 40°38' W 074°08'0 0.0
2018-May-23 00:30N 40°38' W 074°08'0 0.0
2018-May-23 00:00N 40°38' W 074°08'0 0.0
2018-May-22 23:30N 40°38' W 074°08'0 0.0
2018-May-22 23:00N 40°38' W 074°08'0 0.0
2018-May-22 22:30N 40°38' W 074°08'0 0.0
2018-May-22 22:00N 40°38' W 074°08'0 0.0
2018-May-22 21:30N 40°38' W 074°08'0 0.0
2018-May-22 21:00N 40°38' W 074°08'0 0.8
2018-May-22 20:30N 40°39' W 074°07'0 0.4
2018-May-22 19:51N 40°39' W 074°07'1 2.0
2018-May-22 19:30N 40°38' W 074°08'0 0.0
2018-May-22 19:00N 40°38' W 074°08'0 0.0
2018-May-22 18:30N 40°38' W 074°08'0 0.0
2018-May-22 18:00N 40°38' W 074°08'0 0.0
2018-May-22 17:30N 40°38' W 074°08'0 0.0
2018-May-22 17:00N 40°38' W 074°08'0 0.0
2018-May-22 16:30N 40°38' W 074°08'0 0.0
2018-May-22 16:00N 40°38' W 074°08'0 0.0
2018-May-22 15:30N 40°38' W 074°08'1 1.5
2018-May-22 15:00N 40°39' W 074°09'3 5.7
2018-May-22 14:30N 40°41' W 074°08'0 0.6
2018-May-22 13:57N 40°41' W 074°08'0 0.4
2018-May-22 13:30N 40°41' W 074°08'0 0.0
2018-May-22 13:00N 40°41' W 074°08'0 1.0
2018-May-22 12:30N 40°41' W 074°09'2 4.9
2018-May-22 12:00N 40°39' W 074°07'2 3.5
2018-May-22 11:30N 40°40' W 074°08'1 1.7
2018-May-22 11:00N 40°41' W 074°09'0 0.1
2018-May-22 10:30N 40°41' W 074°09'0 0.6
2018-May-22 09:57N 40°41' W 074°08'0 0.3
2018-May-22 09:30N 40°41' W 074°09'1 2.3
2018-May-22 09:00N 40°40' W 074°09'2 4.2
2018-May-22 08:29N 40°39' W 074°06'3 5.2
2018-May-22 08:00N 40°40' W 074°03'1 2.3
2018-May-22 07:30N 40°41' W 074°04'0 0.8
2018-May-22 07:00N 40°41' W 074°04'4 6.7
2018-May-22 06:28N 40°38' W 074°08'0 0.0
2018-May-22 06:00N 40°38' W 074°08'0 0.0
2018-May-22 05:30N 40°38' W 074°08'0 0.0
2018-May-22 05:00N 40°38' W 074°08'0 0.0
2018-May-22 04:28N 40°38' W 074°08'0 0.0
2018-May-22 03:59N 40°38' W 074°08'0 0.0
2018-May-22 03:30N 40°38' W 074°08'0 0.0
2018-May-22 03:00N 40°38' W 074°08'0 0.0
2018-May-22 02:30N 40°38' W 074°08'0 0.0
2018-May-22 02:00N 40°38' W 074°08'0 0.0
2018-May-22 01:30N 40°38' W 074°08'0 0.0
2018-May-22 01:00N 40°38' W 074°08'0 0.0
2018-May-22 00:30N 40°38' W 074°08'0 0.0
2018-May-22 00:00N 40°38' W 074°08'0 0.0
2018-May-21 23:30N 40°38' W 074°08'0 0.0
2018-May-21 23:00N 40°38' W 074°08'0 0.0
2018-May-21 22:26N 40°38' W 074°08'0 0.0
2018-May-21 21:58N 40°38' W 074°08'0 0.0
2018-May-21 21:13N 40°38' W 074°08'0 0.0
2018-May-21 21:00N 40°38' W 074°08'3 0.4
2018-May-21 13:04N 40°38' W 074°12'1 9.9
2018-May-21 12:58N 40°39' W 074°11'4 9.0
2018-May-21 12:30N 40°39' W 074°06'0 0.9
2018-May-21 11:55N 40°39' W 074°05'0 0.0
2018-May-21 11:18N 40°39' W 074°05'2 6.7
2018-May-21 11:00N 40°39' W 074°08'0 0.0
2018-May-21 01:12N 40°38' W 074°08'1 5.7
2018-May-21 01:00N 40°39' W 074°09'3 5.0
2018-May-21 00:30N 40°42' W 074°09'0 0.0
2018-May-21 00:00N 40°42' W 074°09'0 0.0
2018-May-20 23:30N 40°42' W 074°09'1 1.6
2018-May-20 22:35N 40°41' W 074°08'1 6.1
2018-May-20 22:30N 40°40' W 074°08'2 3.3
2018-May-20 22:00N 40°39' W 074°08'0 0.1
2018-May-20 21:28N 40°38' W 074°08'0 0.0
2018-May-20 20:57N 40°38' W 074°08'0 0.0
2018-May-20 20:27N 40°38' W 074°08'0 0.0
2018-May-20 19:59N 40°38' W 074°08'0 0.0
2018-May-20 19:30N 40°38' W 074°08'0 0.0
2018-May-20 18:55N 40°38' W 074°08'4 1.8
2018-May-20 16:45N 40°36' W 074°12'2 4.9
2018-May-20 16:23N 40°38' W 074°12'2 4.8
2018-May-20 15:52N 40°39' W 074°09'2 6.8
2018-May-20 15:30N 40°39' W 074°06'2 4.8
2018-May-20 15:00N 40°38' W 074°03'3 5.3
2018-May-20 14:29N 40°39' W 074°06'1 2.4
2018-May-20 13:59N 40°38' W 074°08'0 0.0
2018-May-20 13:30N 40°38' W 074°08'1 1.2
2018-May-20 12:56N 40°38' W 074°09'2 0.7
2018-May-20 09:08N 40°38' W 074°12'3 0.4
2018-May-20 02:05N 40°38' W 074°08'0 0.0
2018-May-20 01:34N 40°38' W 074°08'0 0.0
2018-May-20 01:28N 40°38' W 074°08'0 0.0
2018-May-20 00:55N 40°38' W 074°08'3 6.0
2018-May-20 00:30N 40°41' W 074°08'0 0.0
2018-May-20 00:00N 40°41' W 074°08'3 5.1
2018-May-19 23:30N 40°38' W 074°08'0 0.0
2018-May-19 22:59N 40°38' W 074°08'0 0.0
2018-May-19 22:30N 40°38' W 074°08'0 0.0
2018-May-19 22:00N 40°38' W 074°08'0 0.0
2018-May-19 21:30N 40°38' W 074°08'0 0.0
2018-May-19 21:00N 40°38' W 074°08'0 0.0
2018-May-19 20:31N 40°38' W 074°08'0 0.0
2018-May-19 20:01N 40°38' W 074°08'0 0.0
2018-May-19 19:30N 40°38' W 074°08'3 6.5
2018-May-19 19:00N 40°40' W 074°04'1 1.9
2018-May-19 18:30N 40°40' W 074°05'3 5.0
2018-May-19 17:58N 40°39' W 074°08'0 0.2
2018-May-19 17:30N 40°38' W 074°08'0 0.0
2018-May-19 17:00N 40°38' W 074°08'0 0.0
2018-May-19 16:30N 40°38' W 074°08'0 0.0
2018-May-19 16:00N 40°38' W 074°08'0 0.0
2018-May-19 15:30N 40°38' W 074°08'0 0.0
2018-May-19 15:00N 40°38' W 074°08'0 0.0
2018-May-19 14:30N 40°38' W 074°08'0 0.0
2018-May-19 13:51N 40°38' W 074°08'0 0.0
2018-May-19 13:30N 40°38' W 074°08'0 0.0
2018-May-19 13:00N 40°38' W 074°08'0 0.0
2018-May-19 12:30N 40°38' W 074°08'0 0.0
2018-May-19 12:00N 40°38' W 074°08'0 0.0
2018-May-19 11:30N 40°38' W 074°08'0 0.0
2018-May-19 11:00N 40°38' W 074°08'0 0.0
2018-May-19 10:30N 40°38' W 074°08'0 0.0
2018-May-19 10:00N 40°38' W 074°08'0 0.0
2018-May-19 09:30N 40°38' W 074°08'0 0.0
2018-May-19 09:00N 40°38' W 074°08'0 0.0
2018-May-19 08:30N 40°38' W 074°08'0 0.0
2018-May-19 08:00N 40°38' W 074°08'0 0.0
2018-May-19 07:29N 40°38' W 074°08'0 0.0
2018-May-19 07:00N 40°38' W 074°08'0 0.0
2018-May-19 06:30N 40°38' W 074°08'0 0.0
2018-May-19 06:00N 40°38' W 074°08'0 0.0
2018-May-19 05:30N 40°38' W 074°08'0 0.0
2018-May-19 05:00N 40°38' W 074°08'0 0.0
2018-May-19 04:30N 40°38' W 074°08'0 0.0
2018-May-19 04:00N 40°38' W 074°08'0 0.1
2018-May-19 03:30N 40°38' W 074°08'2 3.9
2018-May-19 03:01N 40°39' W 074°05'0 0.0
2018-May-19 02:30N 40°39' W 074°05'2 3.6
2018-May-19 01:58N 40°38' W 074°08'0 0.0
2018-May-19 01:30N 40°38' W 074°08'0 0.0
2018-May-19 01:00N 40°38' W 074°08'0 0.0
2018-May-19 00:30N 40°38' W 074°08'1 0.9
2018-May-18 23:55N 40°39' W 074°08'2 4.8
2018-May-18 23:30N 40°40' W 074°08'1 2.2
2018-May-18 22:58N 40°42' W 074°08'2 4.0
2018-May-18 22:29N 40°40' W 074°09'3 5.3
2018-May-18 22:00N 40°39' W 074°05'0 0.0
2018-May-18 21:30N 40°39' W 074°05'0 0.4
2018-May-18 21:00N 40°39' W 074°05'5 2.2
2018-May-18 18:31N 40°38' W 074°12'010.8
2018-May-18 18:30N 40°38' W 074°12'3 1.9
2018-May-18 16:45N 40°38' W 074°08'1 6.1
2018-May-18 16:30N 40°39' W 074°06'5 9.7
2018-May-18 16:00N 40°42' W 074°00'4 8.2
2018-May-18 15:30N 40°45' W 073°58'1 0.5
2018-May-18 13:46N 40°46' W 073°57'3 9.7
2018-May-18 13:30N 40°43' W 073°58'611.5
2018-May-18 13:00N 40°40' W 074°04'3 5.4
2018-May-18 12:27N 40°38' W 074°08'0 0.1
2018-May-18 12:00N 40°38' W 074°08'2 5.0
2018-May-18 11:30N 40°41' W 074°08'1 1.5
2018-May-18 11:00N 40°42' W 074°08'1 1.4
2018-May-18 10:30N 40°41' W 074°08'3 5.0
2018-May-18 10:00N 40°39' W 074°09'1 1.6
2018-May-18 09:21N 40°38' W 074°08'0 0.0
2018-May-18 08:49N 40°38' W 074°08'0 0.0
2018-May-18 08:28N 40°38' W 074°08'0 0.0
2018-May-18 08:00N 40°38' W 074°08'0 0.0
2018-May-18 07:30N 40°38' W 074°08'0 0.0
2018-May-18 07:00N 40°38' W 074°08'0 0.0
2018-May-18 06:30N 40°38' W 074°08'0 0.0
2018-May-18 06:00N 40°38' W 074°08'0 0.0
2018-May-18 05:30N 40°38' W 074°08'0 0.1
2018-May-18 05:00N 40°38' W 074°08'6 7.8
2018-May-18 04:12N 40°34' W 074°13'1 2.4
2018-May-18 03:44N 40°33' W 074°14'5 3.3
2018-May-18 02:17N 40°38' W 074°12'3 8.8
2018-May-18 02:00N 40°39' W 074°09'1 1.5
2018-May-18 01:29N 40°38' W 074°08'0 0.0
2018-May-18 00:56N 40°38' W 074°08'0 0.0
2018-May-18 00:21N 40°38' W 074°08'0 0.0
2018-May-17 23:53N 40°38' W 074°08'0 0.0
2018-May-17 23:27N 40°38' W 074°08'0 0.0
2018-May-17 22:54N 40°38' W 074°08'0 0.0
2018-May-17 22:30N 40°38' W 074°08'0 0.0
2018-May-17 22:00N 40°38' W 074°08'0 0.0
2018-May-17 21:30N 40°38' W 074°08'0 0.0
2018-May-17 20:59N 40°38' W 074°08'0 0.0
2018-May-17 20:30N 40°38' W 074°08'1 1.6
2018-May-17 20:00N 40°39' W 074°07'5 9.3
2018-May-17 19:30N 40°41' W 074°01'1 1.2
2018-May-17 19:00N 40°41' W 074°01'0 0.1
2018-May-17 18:30N 40°41' W 074°01'4 7.5
2018-May-17 18:00N 40°39' W 074°05'2 1.7
2018-May-17 16:38N 40°38' W 074°08'0 0.0
2018-May-17 16:24N 40°38' W 074°08'0 0.0
2018-May-17 16:00N 40°38' W 074°08'0 0.0
2018-May-17 15:19N 40°38' W 074°08'0 0.0
2018-May-17 14:59N 40°38' W 074°08'0 0.0
2018-May-17 14:15N 40°38' W 074°08'0 0.0
2018-May-17 13:59N 40°38' W 074°08'1 2.7
2018-May-17 13:30N 40°40' W 074°09'1 2.2
2018-May-17 13:00N 40°41' W 074°09'0 0.2
2018-May-17 12:30N 40°41' W 074°09'0 0.7
2018-May-17 12:00N 40°41' W 074°09'0 0.3
2018-May-17 11:30N 40°41' W 074°09'1 1.6
2018-May-17 11:00N 40°41' W 074°08'1 1.9
2018-May-17 10:30N 40°42' W 074°09'1 2.7
2018-May-17 10:01N 40°41' W 074°08'2 4.5
2018-May-17 09:30N 40°39' W 074°09'2 3.3
2018-May-17 09:00N 40°39' W 074°07'3 6.0
2018-May-17 08:30N 40°38' W 074°03'4 7.2
2018-May-17 08:00N 40°39' W 074°08'0 0.1
2018-May-17 07:27N 40°38' W 074°08'0 0.0
2018-May-17 06:58N 40°38' W 074°08'0 0.0
2018-May-17 05:23N 40°38' W 074°08'0 0.0
2018-May-17 05:00N 40°38' W 074°08'0 0.0
2018-May-17 04:23N 40°38' W 074°08'0 0.0
2018-May-17 04:00N 40°38' W 074°08'0 0.0
2018-May-17 03:28N 40°38' W 074°08'0 0.0
2018-May-17 03:00N 40°38' W 074°08'4 0.5
2018-May-16 20:15N 40°37' W 074°12'2 8.3
2018-May-16 19:59N 40°39' W 074°10'2 4.0
2018-May-16 19:30N 40°38' W 074°08'0 0.0
2018-May-16 19:00N 40°38' W 074°08'0 0.0
2018-May-16 18:30N 40°38' W 074°08'0 0.0
2018-May-16 17:58N 40°38' W 074°08'0 0.0
2018-May-16 17:30N 40°38' W 074°08'0 0.0
2018-May-16 16:58N 40°38' W 074°08'0 0.0
2018-May-16 16:29N 40°38' W 074°08'0 0.0
2018-May-16 15:59N 40°38' W 074°08'0 0.0
2018-May-16 15:30N 40°38' W 074°08'0 0.0
2018-May-16 15:00N 40°38' W 074°08'0 0.0
2018-May-16 14:30N 40°38' W 074°08'0 0.0
2018-May-16 13:58N 40°38' W 074°08'0 0.0
2018-May-16 13:27N 40°38' W 074°08'0 0.0
2018-May-16 11:57N 40°38' W 074°08'1 2.6
2018-May-16 11:30N 40°39' W 074°09'1 1.3
2018-May-16 11:00N 40°40' W 074°09'2 3.2
2018-May-16 10:29N 40°38' W 074°08'0 0.1
2018-May-16 10:00N 40°38' W 074°08'0 0.0
2018-May-16 09:30N 40°38' W 074°08'0 0.0
2018-May-16 09:00N 40°38' W 074°08'0 0.0
2018-May-16 08:30N 40°38' W 074°08'0 0.0
2018-May-16 08:00N 40°38' W 074°08'0 0.0
2018-May-16 07:28N 40°38' W 074°08'0 0.0
2018-May-16 07:00N 40°38' W 074°08'0 0.0
2018-May-16 06:30N 40°38' W 074°08'0 0.0
2018-May-16 05:59N 40°38' W 074°08'0 0.0
2018-May-16 05:30N 40°38' W 074°08'0 0.0
2018-May-16 05:00N 40°38' W 074°08'0 0.0
2018-May-16 04:30N 40°38' W 074°08'0 0.5
2018-May-16 04:00N 40°39' W 074°07'5 9.2
2018-May-16 03:30N 40°41' W 074°02'1 2.5
2018-May-16 03:00N 40°41' W 074°01'0 0.1
2018-May-16 02:30N 40°41' W 074°01'2 3.3
2018-May-16 02:00N 40°40' W 074°02'5 9.3
2018-May-16 01:30N 40°45' W 074°01'2 0.5
2018-May-15 22:13N 40°46' W 074°00'2 8.1
2018-May-15 22:00N 40°45' W 074°01'4 8.2
2018-May-15 21:30N 40°41' W 074°02'1 2.1
2018-May-15 21:00N 40°40' W 074°02'0 1.0
2018-May-15 20:30N 40°39' W 074°03'4 8.2
2018-May-15 20:00N 40°38' W 074°08'0 0.0
2018-May-15 19:30N 40°38' W 074°08'4 0.9
2018-May-15 15:08N 40°36' W 074°12'1 4.2
2018-May-15 14:56N 40°37' W 074°12'2 5.0
2018-May-15 14:30N 40°39' W 074°11'3 6.3
2018-May-15 14:00N 40°39' W 074°07'2 4.6
2018-May-15 13:30N 40°39' W 074°04'0 0.8
2018-May-15 13:00N 40°39' W 074°04'1 1.1
2018-May-15 12:30N 40°39' W 074°04'3 5.3
2018-May-15 11:58N 40°38' W 074°08'0 0.0
2018-May-15 11:30N 40°38' W 074°08'0 0.0
2018-May-15 10:59N 40°38' W 074°08'0 0.0
2018-May-15 10:30N 40°38' W 074°08'0 0.0
2018-May-15 10:00N 40°38' W 074°08'0 0.0
2018-May-15 09:30N 40°38' W 074°08'0 0.0
2018-May-15 08:59N 40°38' W 074°08'0 0.0
2018-May-15 08:30N 40°38' W 074°08'0 0.0
2018-May-15 08:00N 40°38' W 074°08'0 0.0
2018-May-15 07:30N 40°38' W 074°08'0 0.0
2018-May-15 06:57N 40°38' W 074°08'0 0.0
2018-May-15 06:30N 40°38' W 074°08'0 0.0
2018-May-15 05:59N 40°38' W 074°08'0 0.9
2018-May-15 05:30N 40°39' W 074°08'3 4.6
2018-May-15 04:54N 40°41' W 074°08'0 0.2
2018-May-15 04:18N 40°41' W 074°08'0 0.2
2018-May-15 03:59N 40°41' W 074°08'3 4.7
2018-May-15 03:24N 40°39' W 074°09'1 1.9
2018-May-15 03:00N 40°38' W 074°08'0 0.0
2018-May-15 02:30N 40°38' W 074°08'0 0.0
2018-May-15 02:00N 40°38' W 074°08'0 0.0
2018-May-15 01:30N 40°38' W 074°08'0 0.0
2018-May-15 00:59N 40°38' W 074°08'0 0.0
2018-May-15 00:30N 40°38' W 074°08'0 0.8
2018-May-15 00:00N 40°39' W 074°08'2 3.9
2018-May-14 23:30N 40°40' W 074°08'1 1.7
2018-May-14 23:00N 40°41' W 074°09'0 0.2
2018-May-14 22:30N 40°41' W 074°09'3 5.2
2018-May-14 22:00N 40°38' W 074°08'0 0.0
2018-May-14 21:30N 40°38' W 074°08'0 0.0
2018-May-14 21:00N 40°38' W 074°08'  

Dump ship's entire track history